Time;durP1;ratioP1;P1;durP2;ratioP2;P2;SDS_P1;SDS_P2;PMS_P1;PMS_P2;Temp;Humidity;BMP_temperature;BMP_pressure;BME280_temperature;BME280_humidity;BME280_pressure;Samples;Min_cycle;Max_cycle;Signal;HPM_P1;HPM_P2
2023/10/31 00:01:12;;;;;;;;;;;;;;;;;;6296625;28;19958;-84
2023/10/31 00:04:12;;;;;;;;;;;;;;;;;;6284848;28;19913;-83
2023/10/31 00:07:12;;;;;;;;;;;;;;;;;;6278463;28;19999;-84
2023/10/31 00:10:13;;;;;;;;;;;;;;;;;;6287408;28;19927;-84
2023/10/31 00:13:13;;;;;;;;;;;;;;;;;;6280350;28;20251;-84
2023/10/31 00:16:13;;;;;;;;;;;;;;;;;;6282601;28;19917;-84
2023/10/31 00:19:13;;;;;;;;;;;;;;;;;;6283533;28;19924;-84
2023/10/31 00:22:13;;;;;;;;;;;;;;;;;;6283199;28;19928;-83
2023/10/31 00:25:13;;;;;;;;;;;;;;;;;;6277319;28;19920;-85
2023/10/31 00:28:14;;;;;;;;;;;;;;;;;;6274716;28;19920;-84
2023/10/31 00:31:14;;;;;;;;;;;;;;;;;;6297127;28;19913;-83
2023/10/31 00:34:14;;;;;;;;;;;;;;;;;;6297244;28;20086;-84
2023/10/31 00:37:14;;;;;;;;;;;;;;;;;;6302649;28;19912;-83
2023/10/31 00:40:16;;;;;;;;;;;;;;;;;;6283308;28;19913;-83
2023/10/31 00:43:16;;;;;;;;;;;;;;;;;;6278510;28;20003;-83
2023/10/31 00:46:16;;;;;;;;;;;;;;;;;;6283160;28;19923;-83
2023/10/31 00:49:16;;;;;;;;;;;;;;;;;;6299421;28;19921;-92
2023/10/31 00:52:16;;;;;;;;;;;;;;;;;;6283661;28;19908;-92
2023/10/31 00:55:16;;;;;;;;;;;;;;;;;;6281752;28;19919;-92
2023/10/31 00:58:17;;;;;;;;;;;;;;;;;;6298182;28;19920;-92
2023/10/31 01:01:17;;;;;;;;;;;;;;;;;;6298673;28;20377;-92
2023/10/31 01:04:17;;;;;;;;;;;;;;;;;;6282226;28;19916;-91
2023/10/31 01:07:17;;;;;;;;;;;;;;;;;;6278260;28;20259;-93
2023/10/31 01:10:17;;;;;;;;;;;;;;;;;;6280451;28;19913;-92
2023/10/31 01:13:17;;;;;;;;;;;;;;;;;;6297616;28;19935;-91
2023/10/31 01:16:17;;;;;;;;;;;;;;;;;;6300948;28;20384;-92
2023/10/31 01:19:17;;;;;;;;;;;;;;;;;;6283512;28;20439;-91
2023/10/31 01:22:18;;;;;;;;;;;;;;;;;;6279773;28;19928;-91
2023/10/31 01:25:18;;;;;;;;;;;;;;;;;;6282626;28;19947;-91
2023/10/31 01:28:18;;;;;;;;;;;;;;;;;;6295945;28;19961;-92
2023/10/31 01:31:18;;;;;;;;;;;;;;;;;;6295920;28;19913;-91
2023/10/31 01:34:19;;;;;;;;;;;;;;;;;;6293238;28;19939;-91
2023/10/31 01:37:20;;;;;;;;;;;;;;;;;;6297058;28;19986;-91
2023/10/31 01:40:20;;;;;;;;;;;;;;;;;;6294433;28;20263;-92
2023/10/31 01:43:20;;;;;;;;;;;;;;;;;;6278717;28;19920;-90
2023/10/31 01:46:20;;;;;;;;;;;;;;;;;;6294301;28;19916;-92
2023/10/31 01:49:20;;;;;;;;;;;;;;;;;;6279413;28;19924;-91
2023/10/31 01:52:20;;;;;;;;;;;;;;;;;;6280832;28;19920;-92
2023/10/31 01:55:21;;;;;;;;;;;;;;;;;;6279115;28;19916;-92
2023/10/31 01:58:22;;;;;;;;;;;;;;;;;;6281072;28;20363;-84
2023/10/31 02:01:22;;;;;;;;;;;;;;;;;;6275902;28;20026;-84
2023/10/31 02:04:22;;;;;;;;;;;;;;;;;;6290482;28;19916;-84
2023/10/31 02:07:23;;;;;;;;;;;;;;;;;;6289312;28;19916;-85
2023/10/31 02:10:23;;;;;;;;;;;;;;;;;;6278291;28;19920;-84
2023/10/31 02:13:23;;;;;;;;;;;;;;;;;;6296446;28;20274;-85
2023/10/31 02:16:23;;;;;;;;;;;;;;;;;;6274827;28;20358;-84
2023/10/31 02:19:23;;;;;;;;;;;;;;;;;;6277767;28;19925;-84
2023/10/31 02:22:23;;;;;;;;;;;;;;;;;;6278391;28;20296;-84
2023/10/31 02:25:23;;;;;;;;;;;;;;;;;;6277634;28;19932;-84
2023/10/31 02:28:27;;;;;;;;;;;;;;;;;;6280639;28;19917;-85
2023/10/31 02:31:27;;;;;;;;;;;;;;;;;;6293129;28;20426;-84
2023/10/31 02:34:27;;;;;;;;;;;;;;;;;;6290521;28;19913;-84
2023/10/31 02:37:27;;;;;;;;;;;;;;;;;;6279107;28;20004;-83
2023/10/31 02:40:27;;;;;;;;;;;;;;;;;;6277094;28;20037;-84
2023/10/31 02:43:28;;;;;;;;;;;;;;;;;;6278482;28;19913;-84
2023/10/31 02:46:28;;;;;;;;;;;;;;;;;;6277457;28;19917;-84
2023/10/31 02:49:28;;;;;;;;;;;;;;;;;;6269349;28;19924;-84
2023/10/31 02:52:28;;;;;;;;;;;;;;;;;;6278750;28;19913;-83
2023/10/31 02:55:28;;;;;;;;;;;;;;;;;;6296752;28;19955;-83
2023/10/31 02:58:28;;;;;;;;;;;;;;;;;;6274308;28;19921;-84
2023/10/31 03:01:29;;;;;;;;;;;;;;;;;;6281282;28;19919;-84
2023/10/31 03:04:29;;;;;;;;;;;;;;;;;;6275898;28;20389;-84
2023/10/31 03:07:29;;;;;;;;;;;;;;;;;;6295044;28;19928;-85
2023/10/31 03:10:29;;;;;;;;;;;;;;;;;;6279934;28;19919;-84
2023/10/31 03:13:29;;;;;;;;;;;;;;;;;;6277883;28;19921;-84
2023/10/31 03:16:29;;;;;;;;;;;;;;;;;;6291535;28;19923;-84
2023/10/31 03:19:29;;;;;;;;;;;;;;;;;;6275155;28;19917;-84
2023/10/31 03:22:29;;;;;;;;;;;;;;;;;;6277016;28;19921;-84
2023/10/31 03:25:30;;;;;;;;;;;;;;;;;;6295849;28;20026;-84
2023/10/31 03:28:30;;;;;;;;;;;;;;;;;;6280235;28;19948;-83
2023/10/31 03:31:30;;;;;;;;;;;;;;;;;;6293518;28;19995;-83
2023/10/31 03:34:30;;;;;;;;;;;;;;;;;;6299872;28;20419;-84
2023/10/31 03:37:30;;;;;;;;;;;;;;;;;;6296809;28;19912;-83
2023/10/31 03:40:30;;;;;;;;;;;;;;;;;;6280662;28;19920;-83
2023/10/31 03:43:30;;;;;;;;;;;;;;;;;;6283922;28;19916;-83
2023/10/31 03:46:30;;;;;;;;;;;;;;;;;;6283891;28;19986;-85
2023/10/31 03:49:31;;;;;;;;;;;;;;;;;;6277539;28;20274;-83
2023/10/31 03:52:31;;;;;;;;;;;;;;;;;;6279680;28;20358;-83
2023/10/31 03:55:31;;;;;;;;;;;;;;;;;;6279240;28;19917;-83
2023/10/31 03:58:31;;;;;;;;;;;;;;;;;;6277862;28;20006;-84
2023/10/31 04:01:31;;;;;;;;;;;;;;;;;;6296874;28;20339;-84
2023/10/31 04:04:31;;;;;;;;;;;;;;;;;;6279898;28;20373;-83
2023/10/31 04:07:31;;;;;;;;;;;;;;;;;;6279754;28;19917;-85
2023/10/31 04:10:31;;;;;;;;;;;;;;;;;;6293935;28;19920;-84
2023/10/31 04:13:32;;;;;;;;;;;;;;;;;;6282520;28;19927;-84
2023/10/31 04:16:32;;;;;;;;;;;;;;;;;;6279768;28;19913;-84
2023/10/31 04:19:32;;;;;;;;;;;;;;;;;;6277958;28;20353;-91
2023/10/31 04:22:32;;;;;;;;;;;;;;;;;;6268162;28;19925;-91
2023/10/31 04:25:32;;;;;;;;;;;;;;;;;;6296705;28;19917;-90
2023/10/31 04:28:32;;;;;;;;;;;;;;;;;;6282367;28;19925;-91
2023/10/31 04:31:33;;;;;;;;;;;;;;;;;;6277847;28;19920;-89
2023/10/31 04:34:33;;;;;;;;;;;;;;;;;;6279617;28;19952;-90
2023/10/31 04:37:33;;;;;;;;;;;;;;;;;;6292245;28;19920;-91
2023/10/31 04:40:34;;;;;;;;;;;;;;;;;;6297884;28;19917;-90
2023/10/31 04:43:34;;;;;;;;;;;;;;;;;;6296839;28;19960;-91
2023/10/31 04:46:34;;;;;;;;;;;;;;;;;;6279707;28;19917;-91
2023/10/31 04:49:34;;;;;;;;;;;;;;;;;;6298663;28;19923;-91
2023/10/31 04:52:34;;;;;;;;;;;;;;;;;;6295968;28;19913;-91
2023/10/31 04:55:34;;;;;;;;;;;;;;;;;;6278254;28;19921;-90
2023/10/31 04:58:34;;;;;;;;;;;;;;;;;;6283030;28;19914;-91
2023/10/31 05:01:35;;;;;;;;;;;;;;;;;;6287074;28;19912;-91
2023/10/31 05:04:35;;;;;;;;;;;;;;;;;;6282665;28;19971;-91
2023/10/31 05:07:35;;;;;;;;;;;;;;;;;;6295314;28;19971;-90
2023/10/31 05:10:35;;;;;;;;;;;;;;;;;;6278611;28;19962;-91
2023/10/31 05:13:35;;;;;;;;;;;;;;;;;;6281449;28;20387;-92
2023/10/31 05:16:35;;;;;;;;;;;;;;;;;;6291117;28;19912;-91
2023/10/31 05:19:35;;;;;;;;;;;;;;;;;;6293964;28;20369;-92
2023/10/31 05:22:36;;;;;;;;;;;;;;;;;;6278707;28;19924;-92
2023/10/31 05:25:36;;;;;;;;;;;;;;;;;;6291458;28;19982;-92
2023/10/31 05:28:36;;;;;;;;;;;;;;;;;;6279601;28;19921;-84
2023/10/31 05:31:36;;;;;;;;;;;;;;;;;;6297537;28;19963;-84
2023/10/31 05:34:36;;;;;;;;;;;;;;;;;;6295728;28;19924;-84
2023/10/31 05:37:37;;;;;;;;;;;;;;;;;;6293212;28;20001;-84
2023/10/31 05:40:37;;;;;;;;;;;;;;;;;;6276753;28;19921;-84
2023/10/31 05:43:37;;;;;;;;;;;;;;;;;;6299025;28;19920;-83
2023/10/31 05:46:38;;;;;;;;;;;;;;;;;;6298145;28;20323;-84
2023/10/31 05:49:38;;;;;;;;;;;;;;;;;;6276985;28;19924;-83
2023/10/31 05:52:38;;;;;;;;;;;;;;;;;;6275232;28;20007;-84
2023/10/31 05:55:38;;;;;;;;;;;;;;;;;;6292555;28;19920;-84
2023/10/31 05:58:38;;;;;;;;;;;;;;;;;;6282581;28;19982;-84
2023/10/31 06:01:38;;;;;;;;;;;;;;;;;;6305155;28;20345;-84
2023/10/31 06:04:38;;;;;;;;;;;;;;;;;;6293827;28;19952;-83
2023/10/31 06:07:39;;;;;;;;;;;;;;;;;;6280387;28;19928;-83
2023/10/31 06:10:39;;;;;;;;;;;;;;;;;;6294109;28;19913;-83
2023/10/31 06:13:39;;;;;;;;;;;;;;;;;;6280436;28;19924;-84
2023/10/31 06:16:39;;;;;;;;;;;;;;;;;;6280882;28;19916;-84
2023/10/31 06:19:45;;;;;;;;;;;;;;;;;;6291701;28;19948;-84
2023/10/31 06:22:45;;;;;;;;;;;;;;;;;;6299843;28;19921;-84
2023/10/31 06:25:46;;;;;;;;;;;;;;;;;;6278424;28;19916;-84
2023/10/31 06:28:48;;;;;;;;;;;;;;;;;;6287563;28;20444;-84
2023/10/31 06:31:48;;;;;;;;;;;;;;;;;;6287855;28;19913;-84
2023/10/31 06:34:48;;;;;;;;;;;;;;;;;;6289162;28;19955;-84
2023/10/31 06:37:49;;;;;;;;;;;;;;;;;;6281681;28;19913;-84
2023/10/31 06:40:49;;;;;;;;;;;;;;;;;;6277361;28;19944;-83
2023/10/31 06:43:49;;;;;;;;;;;;;;;;;;6292278;28;19981;-85
2023/10/31 06:46:49;;;;;;;;;;;;;;;;;;5924699;28;10000139;-85
2023/10/31 06:49:49;;;;;;;;;;;;;;;;;;6291761;28;19960;-84
2023/10/31 06:52:49;;;;;;;;;;;;;;;;;;6276195;28;20392;-85
2023/10/31 06:55:50;;;;;;;;;;;;;;;;;;6288209;28;19917;-84
2023/10/31 06:58:50;;;;;;;;;;;;;;;;;;6287515;28;20388;-84
2023/10/31 07:01:50;;;;;;;;;;;;;;;;;;6277105;28;20696;-82
2023/10/31 07:04:50;;;;;;;;;;;;;;;;;;6290099;28;19916;-84
2023/10/31 07:07:50;;;;;;;;;;;;;;;;;;6271647;28;19917;-86
2023/10/31 07:10:51;;;;;;;;;;;;;;;;;;6275918;28;19982;-83
2023/10/31 07:13:51;;;;;;;;;;;;;;;;;;6274120;28;20289;-80
2023/10/31 07:16:51;;;;;;;;;;;;;;;;;;6270306;28;19928;-86
2023/10/31 07:19:51;;;;;;;;;;;;;;;;;;6275616;28;19954;-85
2023/10/31 07:22:51;;;;;;;;;;;;;;;;;;6293381;28;19931;-88
2023/10/31 07:25:51;;;;;;;;;;;;;;;;;;6306511;28;20301;-88
2023/10/31 07:28:52;;;;;;;;;;;;;;;;;;6288811;28;20281;-86
2023/10/31 07:31:52;;;;;;;;;;;;;;;;;;6287760;28;19939;-85
2023/10/31 07:34:52;;;;;;;;;;;;;;;;;;6287466;28;19922;-85
2023/10/31 07:37:52;;;;;;;;;;;;;;;;;;6291149;28;19974;-85
2023/10/31 07:40:53;;;;;;;;;;;;;;;;;;6287982;28;20058;-86
2023/10/31 07:43:53;;;;;;;;;;;;;;;;;;6286700;28;20019;-86
2023/10/31 07:46:53;;;;;;;;;;;;;;;;;;6280628;28;19936;-85
2023/10/31 07:49:53;;;;;;;;;;;;;;;;;;6278554;28;20152;-85
2023/10/31 07:52:53;;;;;;;;;;;;;;;;;;6289797;28;20073;-86
2023/10/31 07:55:54;;;;;;;;;;;;;;;;;;6271996;28;19950;-85
2023/10/31 07:58:54;;;;;;;;;;;;;;;;;;6287522;28;19956;-85
2023/10/31 08:01:54;;;;;;;;;;;;;;;;;;6277870;28;19916;-84
2023/10/31 08:04:55;;;;;;;;;;;;;;;;;;6299793;28;19924;-85
2023/10/31 08:08:04;;;;;;;;;;;;;;;;;;6287839;28;19913;-84
2023/10/31 08:11:04;;;;;;;;;;;;;;;;;;6297972;28;20003;-86
2023/10/31 08:14:04;;;;;;;;;;;;;;;;;;6289981;28;20025;-85
2023/10/31 08:17:09;;;;;;;;;;;;;;;;;;6299864;28;20361;-86
2023/10/31 08:20:09;;;;;;;;;;;;;;;;;;6281296;28;19920;-85
2023/10/31 08:23:09;;;;;;;;;;;;;;;;;;6286390;28;19924;-85
2023/10/31 08:26:09;;;;;;;;;;;;;;;;;;6290750;28;20365;-87
2023/10/31 08:29:10;;;;;;;;;;;;;;;;;;6283175;28;20003;-81
2023/10/31 08:32:10;;;;;;;;;;;;;;;;;;6313409;28;19989;-82
2023/10/31 08:35:10;;;;;;;;;;;;;;;;;;6293728;28;20353;-82
2023/10/31 08:38:10;;;;;;;;;;;;;;;;;;6282691;28;20366;-82
2023/10/31 08:41:10;;;;;;;;;;;;;;;;;;6303294;28;19916;-82
2023/10/31 08:44:10;;;;;;;;;;;;;;;;;;6302683;28;20383;-83
2023/10/31 08:47:12;;;;;;;;;;;;;;;;;;6279262;28;19922;-81
2023/10/31 08:50:13;;;;;;;;;;;;;;;;;;6281828;28;20385;-84
2023/10/31 08:53:13;;;;;;;;;;;;;;;;;;5925544;28;10000258;-81
2023/10/31 08:56:13;;;;;;;;;;;;;;;;;;6301515;28;20369;-80
2023/10/31 08:59:14;;;;;;;;;;;;;;;;;;6288487;28;19920;-83
2023/10/31 09:02:14;;;;;;;;;;;;;;;;;;6287559;28;20297;-83
2023/10/31 09:05:14;;;;;;;;;;;;;;;;;;6288403;28;19940;-83
2023/10/31 09:08:14;;;;;;;;;;;;;;;;;;6278730;28;19917;-82
2023/10/31 09:11:14;;;;;;;;;;;;;;;;;;6281292;28;19971;-82
2023/10/31 09:14:14;;;;;;;;;;;;;;;;;;6308412;28;20304;-83
2023/10/31 09:17:14;;;;;;;;;;;;;;;;;;6303653;28;19916;-83
2023/10/31 09:20:15;;;;;;;;;;;;;;;;;;6296840;28;20020;-80
2023/10/31 09:23:15;;;;;;;;;;;;;;;;;;6291726;28;20327;-84
2023/10/31 09:26:15;;;;;;;;;;;;;;;;;;6294746;28;20319;-75
2023/10/31 09:29:15;;;;;;;;;;;;;;;;;;6291122;28;19942;-83
2023/10/31 09:32:16;;;;;;;;;;;;;;;;;;6294302;28;19963;-82
2023/10/31 09:35:16;;;;;;;;;;;;;;;;;;6294211;28;20054;-83
2023/10/31 09:38:16;;;;;;;;;;;;;;;;;;6291065;28;19920;-85
2023/10/31 09:41:16;;;;;;;;;;;;;;;;;;6276776;28;20015;-83
2023/10/31 09:44:17;;;;;;;;;;;;;;;;;;6282118;28;19916;-83
2023/10/31 09:47:17;;;;;;;;;;;;;;;;;;6293241;28;19916;-83
2023/10/31 09:50:17;;;;;;;;;;;;;;;;;;6298498;28;19921;-83
2023/10/31 09:53:17;;;;;;;;;;;;;;;;;;6299982;28;20380;-83
2023/10/31 09:56:17;;;;;;;;;;;;;;;;;;6277815;28;19920;-83
2023/10/31 09:59:17;;;;;;;;;;;;;;;;;;6283282;28;19913;-75
2023/10/31 10:02:17;;;;;;;;;;;;;;;;;;6294338;28;19916;-75
2023/10/31 10:05:18;;;;;;;;;;;;;;;;;;6286484;28;20263;-83
2023/10/31 10:08:21;;;;;;;;;;;;;;;;;;6288509;28;19924;-83
2023/10/31 10:11:21;;;;;;;;;;;;;;;;;;6295603;28;20436;-83
2023/10/31 10:14:21;;;;;;;;;;;;;;;;;;6271188;28;19913;-82
2023/10/31 10:17:21;;;;;;;;;;;;;;;;;;6288651;28;19919;-84
2023/10/31 10:20:22;;;;;;;;;;;;;;;;;;6294583;28;19916;-84
2023/10/31 10:23:22;;;;;;;;;;;;;;;;;;6298126;28;19924;-84
2023/10/31 10:26:25;;;;;;;;;;;;;;;;;;6294155;28;20742;-83
2023/10/31 10:29:26;;;;;;;;;;;;;;;;;;6305990;28;20400;-83
2023/10/31 10:32:26;;;;;;;;;;;;;;;;;;6297756;28;20420;-84
2023/10/31 10:35:26;;;;;;;;;;;;;;;;;;6280599;28;19970;-84
2023/10/31 10:38:27;;;;;;;;;;;;;;;;;;6298768;28;20437;-83
2023/10/31 10:41:27;;;;;;;;;;;;;;;;;;6297165;28;19916;-81
2023/10/31 10:44:27;;;;;;;;;;;;;;;;;;6294969;28;19939;-81
2023/10/31 10:47:27;;;;;;;;;;;;;;;;;;6280917;28;20340;-83
2023/10/31 10:50:29;;;;;;;;;;;;;;;;;;6268172;28;20413;-84
2023/10/31 10:53:29;;;;;;;;;;;;;;;;;;6279181;28;19923;-87
2023/10/31 10:56:30;;;;;;;;;;;;;;;;;;6292728;28;19932;-86
2023/10/31 10:59:30;;;;;;;;;;;;;;;;;;6294654;28;19913;-84
2023/10/31 11:02:30;;;;;;;;;;;;;;;;;;6293104;28;19955;-85
2023/10/31 11:05:30;;;;;;;;;;;;;;;;;;6311703;28;19912;-84
2023/10/31 11:08:30;;;;;;;;;;;;;;;;;;6322534;28;19919;-80
2023/10/31 11:11:30;;;;;;;;;;;;;;;;;;6306796;28;19916;-81
2023/10/31 11:14:30;;;;;;;;;;;;;;;;;;6296951;28;19912;-81
2023/10/31 11:17:31;;;;;;;;;;;;;;;;;;6291652;28;19958;-82
2023/10/31 11:20:31;;;;;;;;;;;;;;;;;;6311438;28;19912;-84
2023/10/31 11:23:31;;;;;;;;;;;;;;;;;;6321770;28;19920;-84
2023/10/31 11:26:32;;;;;;;;;;;;;;;;;;6308851;28;19913;-84
2023/10/31 11:29:32;;;;;;;;;;;;;;;;;;6296680;28;20396;-83
2023/10/31 11:32:33;;;;;;;;;;;;;;;;;;6300875;28;19909;-84
2023/10/31 11:35:33;;;;;;;;;;;;;;;;;;6288658;28;19919;-83
2023/10/31 11:38:33;;;;;;;;;;;;;;;;;;6297002;28;19955;-84
2023/10/31 11:41:33;;;;;;;;;;;;;;;;;;6294134;28;19917;-83
2023/10/31 11:44:36;;;;;;;;;;;;;;;;;;6287537;28;19957;-83
2023/10/31 11:47:36;;;;;;;;;;;;;;;;;;6317772;28;19920;-83
2023/10/31 11:50:37;;;;;;;;;;;;;;;;;;6300738;28;19917;-82
2023/10/31 11:53:37;;;;;;;;;;;;;;;;;;6309872;28;19916;-86
2023/10/31 11:56:37;;;;;;;;;;;;;;;;;;6326526;28;19919;-82
2023/10/31 11:59:37;;;;;;;;;;;;;;;;;;6281452;28;20051;-81
2023/10/31 12:02:37;;;;;;;;;;;;;;;;;;6296669;28;19913;-84
2023/10/31 12:05:37;;;;;;;;;;;;;;;;;;6274958;28;20298;-83
2023/10/31 12:08:38;;;;;;;;;;;;;;;;;;6274780;28;20331;-85
2023/10/31 12:11:38;;;;;;;;;;;;;;;;;;6302448;28;19958;-83
2023/10/31 12:14:38;;;;;;;;;;;;;;;;;;6316595;28;19931;-83
2023/10/31 12:17:38;;;;;;;;;;;;;;;;;;6300845;28;19921;-81
2023/10/31 12:20:38;;;;;;;;;;;;;;;;;;6306052;28;20013;-81
2023/10/31 12:23:38;;;;;;;;;;;;;;;;;;6304671;28;19921;-81
2023/10/31 12:26:39;;;;;;;;;;;;;;;;;;6286476;28;19913;-82
2023/10/31 12:29:39;;;;;;;;;;;;;;;;;;6295090;28;19916;-81
2023/10/31 12:32:39;;;;;;;;;;;;;;;;;;6298992;28;19957;-80
2023/10/31 12:35:39;;;;;;;;;;;;;;;;;;6302953;28;20122;-82
2023/10/31 12:38:39;;;;;;;;;;;;;;;;;;6281001;28;20340;-82
2023/10/31 12:41:39;;;;;;;;;;;;;;;;;;6281371;28;19951;-81
2023/10/31 12:44:39;;;;;;;;;;;;;;;;;;6297111;28;19908;-83
2023/10/31 12:47:40;;;;;;;;;;;;;;;;;;6270760;28;20445;-83
2023/10/31 12:50:40;;;;;;;;;;;;;;;;;;6276558;28;19928;-85
2023/10/31 12:53:40;;;;;;;;;;;;;;;;;;6295785;28;19920;-85
2023/10/31 12:56:40;;;;;;;;;;;;;;;;;;6297008;28;19909;-84
2023/10/31 12:59:40;;;;;;;;;;;;;;;;;;6295554;28;19973;-80
2023/10/31 13:02:40;;;;;;;;;;;;;;;;;;6312404;28;19916;-81
2023/10/31 13:05:41;;;;;;;;;;;;;;;;;;6295300;28;20006;-83
2023/10/31 13:08:41;;;;;;;;;;;;;;;;;;6281481;28;19927;-81
2023/10/31 13:11:41;;;;;;;;;;;;;;;;;;5955135;27;10000152;-81
2023/10/31 13:14:41;;;;;;;;;;;;;;;;;;6296463;28;19943;-79
2023/10/31 13:17:43;;;;;;;;;;;;;;;;;;6286862;28;20286;-82
2023/10/31 13:20:43;;;;;;;;;;;;;;;;;;6291232;28;19917;-84
2023/10/31 13:23:45;;;;;;;;;;;;;;;;;;6295736;28;20297;-81
2023/10/31 13:26:51;;;;;;;;;;;;;;;;;;6290346;28;20395;-80
2023/10/31 13:29:51;;;;;;;;;;;;;;;;;;6295647;28;19955;-80
2023/10/31 13:32:52;;;;;;;;;;;;;;;;;;6294079;28;20030;-80
2023/10/31 13:35:52;;;;;;;;;;;;;;;;;;6292908;28;19932;-81
2023/10/31 13:38:52;;;;;;;;;;;;;;;;;;6301171;28;20324;-82
2023/10/31 13:41:52;;;;;;;;;;;;;;;;;;5597888;28;10020685;-82
2023/10/31 13:44:53;;;;;;;;;;;;;;;;;;6280558;28;19916;-80
2023/10/31 13:47:53;;;;;;;;;;;;;;;;;;6285298;28;19921;-83
2023/10/31 13:50:53;;;;;;;;;;;;;;;;;;6292651;28;19919;-82
2023/10/31 13:53:53;;;;;;;;;;;;;;;;;;6313001;28;19916;-80
2023/10/31 13:56:53;;;;;;;;;;;;;;;;;;6323658;28;19908;-81
2023/10/31 13:59:53;;;;;;;;;;;;;;;;;;6310952;28;19913;-82
2023/10/31 14:02:53;;;;;;;;;;;;;;;;;;6296458;28;19912;-81
2023/10/31 14:05:54;;;;;;;;;;;;;;;;;;6303857;28;19915;-85
2023/10/31 14:08:54;;;;;;;;;;;;;;;;;;6290899;28;20369;-81
2023/10/31 14:11:54;;;;;;;;;;;;;;;;;;6290355;28;20037;-81
2023/10/31 14:14:54;;;;;;;;;;;;;;;;;;6296215;28;19912;-81
2023/10/31 14:17:54;;;;;;;;;;;;;;;;;;6291626;28;19945;-82
2023/10/31 14:20:54;;;;;;;;;;;;;;;;;;6291785;28;20367;-81
2023/10/31 14:23:54;;;;;;;;;;;;;;;;;;6311215;28;19924;-82
2023/10/31 14:26:55;;;;;;;;;;;;;;;;;;6301654;28;20804;-81
2023/10/31 14:29:55;;;;;;;;;;;;;;;;;;6294863;28;19969;-83
2023/10/31 14:32:55;;;;;;;;;;;;;;;;;;6289823;28;19912;-85
2023/10/31 14:35:55;;;;;;;;;;;;;;;;;;6288620;28;19913;-82
2023/10/31 14:38:58;;;;;;;;;;;;;;;;;;6275953;28;19919;-82
2023/10/31 14:41:58;;;;;;;;;;;;;;;;;;6295920;28;19916;-81
2023/10/31 14:45:00;;;;;;;;;;;;;;;;;;6303343;28;20295;-81
2023/10/31 14:48:00;;;;;;;;;;;;;;;;;;6288783;28;19913;-81
2023/10/31 14:51:01;;;;;;;;;;;;;;;;;;6271205;28;19916;-81
2023/10/31 14:54:01;;;;;;;;;;;;;;;;;;6292127;28;19908;-81
2023/10/31 14:57:01;;;;;;;;;;;;;;;;;;6297929;28;20361;-81
2023/10/31 15:00:01;;;;;;;;;;;;;;;;;;6295661;28;19915;-82
2023/10/31 15:03:01;;;;;;;;;;;;;;;;;;6297209;28;19920;-83
2023/10/31 15:06:01;;;;;;;;;;;;;;;;;;6295870;28;19954;-82
2023/10/31 15:09:02;;;;;;;;;;;;;;;;;;6290197;28;19935;-81
2023/10/31 15:12:02;;;;;;;;;;;;;;;;;;6300365;28;19912;-81
2023/10/31 15:15:02;;;;;;;;;;;;;;;;;;6322159;28;20418;-81
2023/10/31 15:18:03;;;;;;;;;;;;;;;;;;6309709;28;20373;-83
2023/10/31 15:21:03;;;;;;;;;;;;;;;;;;6312014;28;20029;-83
2023/10/31 15:24:07;;;;;;;;;;;;;;;;;;6301552;28;19929;-82
2023/10/31 15:27:07;;;;;;;;;;;;;;;;;;6291541;28;20266;-81
2023/10/31 15:30:10;;;;;;;;;;;;;;;;;;6302091;28;19912;-81
2023/10/31 15:33:10;;;;;;;;;;;;;;;;;;6299707;28;19913;-82
2023/10/31 15:36:11;;;;;;;;;;;;;;;;;;6297741;28;19958;-81
2023/10/31 15:39:12;;;;;;;;;;;;;;;;;;6299901;28;19999;-81
2023/10/31 15:42:12;;;;;;;;;;;;;;;;;;6315492;28;20300;-81
2023/10/31 15:45:12;;;;;;;;;;;;;;;;;;6298728;28;19924;-80
2023/10/31 15:48:13;;;;;;;;;;;;;;;;;;6298832;28;19924;-81
2023/10/31 15:51:13;;;;;;;;;;;;;;;;;;6300453;28;19909;-81
2023/10/31 15:54:14;;;;;;;;;;;;;;;;;;6302790;28;19959;-81
2023/10/31 15:57:18;;;;;;;;;;;;;;;;;;6301756;28;19916;-81
2023/10/31 16:00:19;;;;;;;;;;;;;;;;;;6280479;28;19916;-81
2023/10/31 16:03:19;;;;;;;;;;;;;;;;;;6299659;28;19912;-81
2023/10/31 16:06:19;;;;;;;;;;;;;;;;;;6298391;28;19920;-81
2023/10/31 16:09:19;;;;;;;;;;;;;;;;;;6299436;28;19921;-80
2023/10/31 16:12:19;;;;;;;;;;;;;;;;;;6301125;28;19908;-81
2023/10/31 16:15:19;;;;;;;;;;;;;;;;;;6299815;28;19917;-81
2023/10/31 16:18:19;;;;;;;;;;;;;;;;;;6299661;28;19923;-81
2023/10/31 16:21:19;;;;;;;;;;;;;;;;;;6299924;28;19913;-80
2023/10/31 16:24:19;;;;;;;;;;;;;;;;;;6300566;28;19915;-81
2023/10/31 16:27:21;;;;;;;;;;;;;;;;;;6300459;28;19948;-80
2023/10/31 16:30:21;;;;;;;;;;;;;;;;;;6299217;28;19917;-80
2023/10/31 16:33:21;;;;;;;;;;;;;;;;;;6298483;28;19978;-81
2023/10/31 16:36:21;;;;;;;;;;;;;;;;;;6297200;28;20079;-80
2023/10/31 16:39:22;;;;;;;;;;;;;;;;;;6299836;28;20291;-80
2023/10/31 16:42:22;;;;;;;;;;;;;;;;;;6300511;28;19963;-80
2023/10/31 16:45:22;;;;;;;;;;;;;;;;;;6298779;28;19982;-80
2023/10/31 16:48:22;;;;;;;;;;;;;;;;;;6290083;28;19920;-81
2023/10/31 16:51:22;;;;;;;;;;;;;;;;;;6297757;28;19952;-81
2023/10/31 16:54:22;;;;;;;;;;;;;;;;;;6286109;28;19919;-80
2023/10/31 16:57:22;;;;;;;;;;;;;;;;;;6312484;28;19965;-82
2023/10/31 17:00:23;;;;;;;;;;;;;;;;;;6280255;28;20366;-84
2023/10/31 17:03:23;;;;;;;;;;;;;;;;;;6291083;28;19920;-83
2023/10/31 17:06:23;;;;;;;;;;;;;;;;;;6291936;28;20503;-82
2023/10/31 17:09:23;;;;;;;;;;;;;;;;;;6316526;28;19923;-81
2023/10/31 17:12:23;;;;;;;;;;;;;;;;;;6300122;28;19999;-81
2023/10/31 17:15:23;;;;;;;;;;;;;;;;;;6279782;28;20280;-81
2023/10/31 17:18:23;;;;;;;;;;;;;;;;;;6298519;28;20050;-81
2023/10/31 17:21:24;;;;;;;;;;;;;;;;;;6275690;28;19908;-81
2023/10/31 17:24:24;;;;;;;;;;;;;;;;;;6287143;28;20270;-81
2023/10/31 17:27:24;;;;;;;;;;;;;;;;;;6297332;28;20369;-83
2023/10/31 17:30:24;;;;;;;;;;;;;;;;;;6283591;28;20387;-83
2023/10/31 17:33:27;;;;;;;;;;;;;;;;;;6296176;28;19924;-81
2023/10/31 17:36:27;;;;;;;;;;;;;;;;;;6273207;28;19913;-80
2023/10/31 17:39:28;;;;;;;;;;;;;;;;;;6286259;28;19927;-80
2023/10/31 17:42:28;;;;;;;;;;;;;;;;;;6296477;28;20300;-83
2023/10/31 17:45:28;;;;;;;;;;;;;;;;;;6290674;28;20372;-82
2023/10/31 17:48:28;;;;;;;;;;;;;;;;;;6311894;28;20292;-83
2023/10/31 17:51:28;;;;;;;;;;;;;;;;;;6304290;28;20293;-84
2023/10/31 17:54:28;;;;;;;;;;;;;;;;;;6315053;28;20388;-82
2023/10/31 17:57:28;;;;;;;;;;;;;;;;;;6299084;28;19916;-83
2023/10/31 18:00:29;;;;;;;;;;;;;;;;;;6297718;28;19951;-82
2023/10/31 18:03:29;;;;;;;;;;;;;;;;;;6304745;28;19959;-85
2023/10/31 18:06:29;;;;;;;;;;;;;;;;;;6286267;28;19957;-82
2023/10/31 18:09:29;;;;;;;;;;;;;;;;;;6276858;28;19923;-83
2023/10/31 18:12:29;;;;;;;;;;;;;;;;;;6274582;28;19913;-82
2023/10/31 18:15:29;;;;;;;;;;;;;;;;;;6276585;28;20015;-79
2023/10/31 18:18:30;;;;;;;;;;;;;;;;;;6275401;28;19916;-87
2023/10/31 18:21:31;;;;;;;;;;;;;;;;;;6280271;28;19984;-83
2023/10/31 18:24:31;;;;;;;;;;;;;;;;;;6280039;28;19956;-87
2023/10/31 18:27:31;;;;;;;;;;;;;;;;;;6291592;28;19970;-86
2023/10/31 18:30:31;;;;;;;;;;;;;;;;;;6277478;28;20015;-85
2023/10/31 18:33:34;;;;;;;;;;;;;;;;;;6292551;28;19973;-85
2023/10/31 18:36:34;;;;;;;;;;;;;;;;;;6292367;28;19974;-84
2023/10/31 18:39:35;;;;;;;;;;;;;;;;;;6276418;28;20120;-84
2023/10/31 18:42:35;;;;;;;;;;;;;;;;;;6275085;28;20008;-85
2023/10/31 18:45:35;;;;;;;;;;;;;;;;;;6276258;28;19917;-88
2023/10/31 18:48:38;;;;;;;;;;;;;;;;;;6286840;28;19916;-86
2023/10/31 18:51:38;;;;;;;;;;;;;;;;;;6283601;28;19909;-85
2023/10/31 18:54:39;;;;;;;;;;;;;;;;;;6290104;28;19955;-86
2023/10/31 18:57:39;;;;;;;;;;;;;;;;;;6282489;28;19908;-86
2023/10/31 19:00:39;;;;;;;;;;;;;;;;;;6322443;28;19916;-86
2023/10/31 19:03:39;;;;;;;;;;;;;;;;;;6288339;28;19916;-85
2023/10/31 19:06:41;;;;;;;;;;;;;;;;;;6294969;28;19916;-88
2023/10/31 19:09:41;;;;;;;;;;;;;;;;;;6293415;28;19924;-86
2023/10/31 19:12:41;;;;;;;;;;;;;;;;;;6285476;28;19913;-86
2023/10/31 19:15:42;;;;;;;;;;;;;;;;;;6279857;28;19920;-86
2023/10/31 19:18:44;;;;;;;;;;;;;;;;;;6290956;28;19924;-86
2023/10/31 19:21:45;;;;;;;;;;;;;;;;;;6311032;28;19920;-87
2023/10/31 19:24:45;;;;;;;;;;;;;;;;;;6294715;28;20352;-87
2023/10/31 19:27:45;;;;;;;;;;;;;;;;;;6290722;28;20384;-87
2023/10/31 19:30:45;;;;;;;;;;;;;;;;;;6289731;28;19916;-86
2023/10/31 19:33:45;;;;;;;;;;;;;;;;;;6268139;28;19963;-86
2023/10/31 19:36:45;;;;;;;;;;;;;;;;;;6292343;28;20503;-89
2023/10/31 19:39:45;;;;;;;;;;;;;;;;;;6289272;28;19912;-90
2023/10/31 19:42:46;;;;;;;;;;;;;;;;;;6283338;28;19916;-85
2023/10/31 19:45:46;;;;;;;;;;;;;;;;;;5927097;28;9999803;-86
2023/10/31 19:48:47;;;;;;;;;;;;;;;;;;6287904;28;19924;-85
2023/10/31 19:51:47;;;;;;;;;;;;;;;;;;6274712;28;19962;-86
2023/10/31 19:54:47;;;;;;;;;;;;;;;;;;6313176;28;19917;-86
2023/10/31 19:57:48;;;;;;;;;;;;;;;;;;5938327;28;10000479;-85
2023/10/31 20:00:48;;;;;;;;;;;;;;;;;;6275719;28;20301;-85
2023/10/31 20:03:48;;;;;;;;;;;;;;;;;;6285294;28;20297;-85
2023/10/31 20:06:49;;;;;;;;;;;;;;;;;;6308798;28;19920;-85
2023/10/31 20:09:49;;;;;;;;;;;;;;;;;;6283423;28;19924;-85
2023/10/31 20:12:49;;;;;;;;;;;;;;;;;;6302012;28;20319;-86
2023/10/31 20:15:51;;;;;;;;;;;;;;;;;;6296742;28;19967;-85
2023/10/31 20:18:52;;;;;;;;;;;;;;;;;;6311525;28;19916;-85
2023/10/31 20:21:52;;;;;;;;;;;;;;;;;;6274962;28;19928;-85
2023/10/31 20:24:54;;;;;;;;;;;;;;;;;;6296030;28;20293;-85
2023/10/31 20:27:54;;;;;;;;;;;;;;;;;;6277369;28;19925;-85